sensor_id;sensor_type;location;lat;lon;timestamp;P1;durP1;ratioP1;P2;durP2;ratioP2
7308;SDS011;3695;53.330;9.876;2023-02-12T00:01:22;33.90;;;10.03;;
7308;SDS011;3695;53.330;9.876;2023-02-12T00:03:49;36.40;;;12.17;;
7308;SDS011;3695;53.330;9.876;2023-02-12T00:06:16;38.80;;;10.23;;
7308;SDS011;3695;53.330;9.876;2023-02-12T00:08:42;33.13;;;9.73;;
7308;SDS011;3695;53.330;9.876;2023-02-12T00:11:09;37.83;;;9.53;;
7308;SDS011;3695;53.330;9.876;2023-02-12T00:13:38;28.17;;;8.10;;
7308;SDS011;3695;53.330;9.876;2023-02-12T00:16:05;34.43;;;9.97;;
7308;SDS011;3695;53.330;9.876;2023-02-12T00:18:33;32.60;;;10.23;;
7308;SDS011;3695;53.330;9.876;2023-02-12T00:20:59;27.03;;;8.90;;
7308;SDS011;3695;53.330;9.876;2023-02-12T00:23:26;24.03;;;8.63;;
7308;SDS011;3695;53.330;9.876;2023-02-12T00:25:52;24.70;;;7.97;;
7308;SDS011;3695;53.330;9.876;2023-02-12T00:28:19;25.20;;;9.20;;
7308;SDS011;3695;53.330;9.876;2023-02-12T00:30:47;28.30;;;8.10;;
7308;SDS011;3695;53.330;9.876;2023-02-12T00:33:13;22.57;;;8.50;;
7308;SDS011;3695;53.330;9.876;2023-02-12T00:35:40;29.17;;;8.30;;
7308;SDS011;3695;53.330;9.876;2023-02-12T00:38:06;26.80;;;8.30;;
7308;SDS011;3695;53.330;9.876;2023-02-12T00:40:32;26.70;;;8.50;;
7308;SDS011;3695;53.330;9.876;2023-02-12T00:42:59;26.33;;;8.67;;
7308;SDS011;3695;53.330;9.876;2023-02-12T00:45:25;23.67;;;8.17;;
7308;SDS011;3695;53.330;9.876;2023-02-12T00:47:53;28.30;;;8.20;;
7308;SDS011;3695;53.330;9.876;2023-02-12T00:50:19;29.17;;;8.57;;
7308;SDS011;3695;53.330;9.876;2023-02-12T00:52:46;27.20;;;7.57;;
7308;SDS011;3695;53.330;9.876;2023-02-12T00:55:12;26.30;;;7.20;;
7308;SDS011;3695;53.330;9.876;2023-02-12T00:57:39;23.83;;;6.70;;
7308;SDS011;3695;53.330;9.876;2023-02-12T01:00:06;19.67;;;6.37;;
7308;SDS011;3695;53.330;9.876;2023-02-12T01:02:33;20.30;;;6.37;;
7308;SDS011;3695;53.330;9.876;2023-02-12T01:05:01;19.87;;;5.83;;
7308;SDS011;3695;53.330;9.876;2023-02-12T01:07:27;17.13;;;5.33;;
7308;SDS011;3695;53.330;9.876;2023-02-12T01:09:53;17.57;;;4.67;;
7308;SDS011;3695;53.330;9.876;2023-02-12T01:12:20;14.83;;;4.70;;
7308;SDS011;3695;53.330;9.876;2023-02-12T01:14:46;15.03;;;4.83;;
7308;SDS011;3695;53.330;9.876;2023-02-12T01:17:13;17.77;;;4.87;;
7308;SDS011;3695;53.330;9.876;2023-02-12T01:19:39;15.57;;;5.37;;
7308;SDS011;3695;53.330;9.876;2023-02-12T01:22:07;18.00;;;5.03;;
7308;SDS011;3695;53.330;9.876;2023-02-12T01:24:33;19.93;;;5.40;;
7308;SDS011;3695;53.330;9.876;2023-02-12T01:27:00;23.67;;;6.47;;
7308;SDS011;3695;53.330;9.876;2023-02-12T01:29:26;19.00;;;5.80;;
7308;SDS011;3695;53.330;9.876;2023-02-12T01:31:53;23.10;;;6.10;;
7308;SDS011;3695;53.330;9.876;2023-02-12T01:34:19;16.53;;;6.13;;
7308;SDS011;3695;53.330;9.876;2023-02-12T01:36:45;25.97;;;6.27;;
7308;SDS011;3695;53.330;9.876;2023-02-12T01:39:13;23.63;;;7.53;;
7308;SDS011;3695;53.330;9.876;2023-02-12T01:41:40;20.90;;;6.57;;
7308;SDS011;3695;53.330;9.876;2023-02-12T01:44:10;18.97;;;6.37;;
7308;SDS011;3695;53.330;9.876;2023-02-12T01:46:40;29.60;;;8.45;;
7308;SDS011;3695;53.330;9.876;2023-02-12T01:49:09;29.00;;;7.90;;
7308;SDS011;3695;53.330;9.876;2023-02-12T01:51:39;37.43;;;8.07;;
7308;SDS011;3695;53.330;9.876;2023-02-12T01:54:07;24.43;;;6.60;;
7308;SDS011;3695;53.330;9.876;2023-02-12T01:56:38;26.23;;;5.53;;
7308;SDS011;3695;53.330;9.876;2023-02-12T01:59:05;18.37;;;5.83;;
7308;SDS011;3695;53.330;9.876;2023-02-12T02:01:32;18.10;;;5.10;;
7308;SDS011;3695;53.330;9.876;2023-02-12T02:04:00;17.77;;;5.40;;
7308;SDS011;3695;53.330;9.876;2023-02-12T02:06:31;23.17;;;5.73;;
7308;SDS011;3695;53.330;9.876;2023-02-12T02:09:00;28.00;;;6.20;;
7308;SDS011;3695;53.330;9.876;2023-02-12T02:11:27;15.40;;;4.93;;
7308;SDS011;3695;53.330;9.876;2023-02-12T02:14:13;16.60;;;5.03;;
7308;SDS011;3695;53.330;9.876;2023-02-12T02:17:00;14.63;;;5.23;;
7308;SDS011;3695;53.330;9.876;2023-02-12T02:19:42;13.07;;;4.63;;
7308;SDS011;3695;53.330;9.876;2023-02-12T02:22:31;16.87;;;5.37;;
7308;SDS011;3695;53.330;9.876;2023-02-12T02:25:14;13.07;;;4.73;;
7308;SDS011;3695;53.330;9.876;2023-02-12T02:28:01;17.77;;;4.83;;
7308;SDS011;3695;53.330;9.876;2023-02-12T02:30:40;11.90;;;4.10;;
7308;SDS011;3695;53.330;9.876;2023-02-12T02:33:18;12.03;;;3.97;;
7308;SDS011;3695;53.330;9.876;2023-02-12T02:35:59;7.00;;;3.27;;
7308;SDS011;3695;53.330;9.876;2023-02-12T02:38:39;8.93;;;3.30;;
7308;SDS011;3695;53.330;9.876;2023-02-12T02:41:12;9.33;;;2.90;;
7308;SDS011;3695;53.330;9.876;2023-02-12T02:43:43;7.77;;;2.80;;
7308;SDS011;3695;53.330;9.876;2023-02-12T02:46:17;6.67;;;2.50;;
7308;SDS011;3695;53.330;9.876;2023-02-12T02:48:50;9.53;;;3.10;;
7308;SDS011;3695;53.330;9.876;2023-02-12T02:51:22;6.90;;;2.60;;
7308;SDS011;3695;53.330;9.876;2023-02-12T02:53:55;6.23;;;2.90;;
7308;SDS011;3695;53.330;9.876;2023-02-12T02:56:26;10.07;;;2.80;;
7308;SDS011;3695;53.330;9.876;2023-02-12T02:58:56;7.47;;;3.17;;
7308;SDS011;3695;53.330;9.876;2023-02-12T03:01:28;13.90;;;4.53;;
7308;SDS011;3695;53.330;9.876;2023-02-12T03:04:00;16.53;;;3.57;;
7308;SDS011;3695;53.330;9.876;2023-02-12T03:06:32;22.10;;;4.10;;
7308;SDS011;3695;53.330;9.876;2023-02-12T03:09:05;11.23;;;3.67;;
7308;SDS011;3695;53.330;9.876;2023-02-12T03:11:38;14.77;;;4.30;;
7308;SDS011;3695;53.330;9.876;2023-02-12T03:14:06;16.10;;;4.90;;
7308;SDS011;3695;53.330;9.876;2023-02-12T03:16:38;13.87;;;3.93;;
7308;SDS011;3695;53.330;9.876;2023-02-12T03:19:10;15.20;;;3.70;;
7308;SDS011;3695;53.330;9.876;2023-02-12T03:21:40;16.80;;;4.03;;
7308;SDS011;3695;53.330;9.876;2023-02-12T03:24:11;12.10;;;3.80;;
7308;SDS011;3695;53.330;9.876;2023-02-12T03:26:42;15.07;;;3.70;;
7308;SDS011;3695;53.330;9.876;2023-02-12T03:29:13;11.07;;;3.63;;
7308;SDS011;3695;53.330;9.876;2023-02-12T03:31:44;18.13;;;3.77;;
7308;SDS011;3695;53.330;9.876;2023-02-12T03:34:22;10.13;;;3.53;;
7308;SDS011;3695;53.330;9.876;2023-02-12T03:36:54;17.50;;;4.53;;
7308;SDS011;3695;53.330;9.876;2023-02-12T03:39:27;12.80;;;3.93;;
7308;SDS011;3695;53.330;9.876;2023-02-12T03:41:59;14.87;;;4.00;;
7308;SDS011;3695;53.330;9.876;2023-02-12T03:44:35;11.23;;;3.37;;
7308;SDS011;3695;53.330;9.876;2023-02-12T03:47:16;15.00;;;3.87;;
7308;SDS011;3695;53.330;9.876;2023-02-12T03:49:49;32.63;;;4.10;;
7308;SDS011;3695;53.330;9.876;2023-02-12T03:52:20;18.53;;;3.90;;
7308;SDS011;3695;53.330;9.876;2023-02-12T03:54:47;31.33;;;4.40;;
7308;SDS011;3695;53.330;9.876;2023-02-12T03:57:14;13.93;;;3.30;;
7308;SDS011;3695;53.330;9.876;2023-02-12T03:59:44;15.33;;;3.20;;
7308;SDS011;3695;53.330;9.876;2023-02-12T04:02:11;19.23;;;3.63;;
7308;SDS011;3695;53.330;9.876;2023-02-12T04:04:40;10.67;;;3.20;;
7308;SDS011;3695;53.330;9.876;2023-02-12T04:07:07;21.70;;;4.07;;
7308;SDS011;3695;53.330;9.876;2023-02-12T04:09:34;13.70;;;4.30;;
7308;SDS011;3695;53.330;9.876;2023-02-12T04:12:05;14.53;;;4.30;;
7308;SDS011;3695;53.330;9.876;2023-02-12T04:14:49;15.47;;;4.30;;
7308;SDS011;3695;53.330;9.876;2023-02-12T04:17:21;21.90;;;4.70;;
7308;SDS011;3695;53.330;9.876;2023-02-12T04:20:00;26.77;;;5.30;;
7308;SDS011;3695;53.330;9.876;2023-02-12T04:22:35;22.70;;;5.77;;
7308;SDS011;3695;53.330;9.876;2023-02-12T04:25:14;37.10;;;5.67;;
7308;SDS011;3695;53.330;9.876;2023-02-12T04:27:54;56.27;;;6.77;;
7308;SDS011;3695;53.330;9.876;2023-02-12T04:30:26;73.07;;;7.87;;
7308;SDS011;3695;53.330;9.876;2023-02-12T04:32:58;69.83;;;7.00;;
7308;SDS011;3695;53.330;9.876;2023-02-12T04:35:30;82.87;;;6.53;;
7308;SDS011;3695;53.330;9.876;2023-02-12T04:38:01;35.73;;;4.77;;
7308;SDS011;3695;53.330;9.876;2023-02-12T04:40:34;53.80;;;6.77;;
7308;SDS011;3695;53.330;9.876;2023-02-12T04:43:03;45.43;;;5.97;;
7308;SDS011;3695;53.330;9.876;2023-02-12T04:45:31;71.23;;;6.33;;
7308;SDS011;3695;53.330;9.876;2023-02-12T04:47:59;57.67;;;6.23;;
7308;SDS011;3695;53.330;9.876;2023-02-12T04:50:26;55.37;;;6.20;;
7308;SDS011;3695;53.330;9.876;2023-02-12T04:53:03;112.17;;;7.33;;
7308;SDS011;3695;53.330;9.876;2023-02-12T04:55:30;93.57;;;8.17;;
7308;SDS011;3695;53.330;9.876;2023-02-12T04:57:56;72.57;;;6.43;;
7308;SDS011;3695;53.330;9.876;2023-02-12T05:00:23;55.67;;;6.90;;
7308;SDS011;3695;53.330;9.876;2023-02-12T05:02:49;54.03;;;6.23;;
7308;SDS011;3695;53.330;9.876;2023-02-12T05:05:16;69.00;;;7.77;;
7308;SDS011;3695;53.330;9.876;2023-02-12T05:07:42;72.93;;;7.40;;
7308;SDS011;3695;53.330;9.876;2023-02-12T05:10:10;40.50;;;6.37;;
7308;SDS011;3695;53.330;9.876;2023-02-12T05:12:38;108.20;;;8.23;;
7308;SDS011;3695;53.330;9.876;2023-02-12T05:15:04;80.57;;;8.43;;
7308;SDS011;3695;53.330;9.876;2023-02-12T05:17:31;90.57;;;7.87;;
7308;SDS011;3695;53.330;9.876;2023-02-12T05:19:57;65.33;;;6.83;;
7308;SDS011;3695;53.330;9.876;2023-02-12T05:22:24;103.17;;;9.03;;
7308;SDS011;3695;53.330;9.876;2023-02-12T05:24:50;99.43;;;10.47;;
7308;SDS011;3695;53.330;9.876;2023-02-12T05:27:18;128.73;;;9.77;;
7308;SDS011;3695;53.330;9.876;2023-02-12T05:29:44;75.77;;;8.00;;
7308;SDS011;3695;53.330;9.876;2023-02-12T05:32:11;84.27;;;8.83;;
7308;SDS011;3695;53.330;9.876;2023-02-12T05:34:37;78.53;;;8.47;;
7308;SDS011;3695;53.330;9.876;2023-02-12T05:37:04;82.70;;;8.00;;
7308;SDS011;3695;53.330;9.876;2023-02-12T05:39:31;75.10;;;9.00;;
7308;SDS011;3695;53.330;9.876;2023-02-12T05:41:57;153.13;;;12.53;;
7308;SDS011;3695;53.330;9.876;2023-02-12T05:44:25;98.20;;;12.87;;
7308;SDS011;3695;53.330;9.876;2023-02-12T05:46:51;147.30;;;12.90;;
7308;SDS011;3695;53.330;9.876;2023-02-12T05:49:18;88.60;;;10.73;;
7308;SDS011;3695;53.330;9.876;2023-02-12T05:51:44;97.83;;;12.10;;
7308;SDS011;3695;53.330;9.876;2023-02-12T05:54:11;148.93;;;14.87;;
7308;SDS011;3695;53.330;9.876;2023-02-12T05:56:41;79.17;;;11.17;;
7308;SDS011;3695;53.330;9.876;2023-02-12T05:59:11;89.90;;;11.33;;
7308;SDS011;3695;53.330;9.876;2023-02-12T06:01:41;62.23;;;10.07;;
7308;SDS011;3695;53.330;9.876;2023-02-12T06:04:12;100.47;;;12.70;;
7308;SDS011;3695;53.330;9.876;2023-02-12T06:06:40;116.00;;;14.03;;
7308;SDS011;3695;53.330;9.876;2023-02-12T06:09:07;112.40;;;14.00;;
7308;SDS011;3695;53.330;9.876;2023-02-12T06:11:34;129.70;;;15.27;;
7308;SDS011;3695;53.330;9.876;2023-02-12T06:14:01;64.37;;;11.80;;
7308;SDS011;3695;53.330;9.876;2023-02-12T06:16:28;123.17;;;14.40;;
7308;SDS011;3695;53.330;9.876;2023-02-12T06:18:56;158.23;;;15.23;;
7308;SDS011;3695;53.330;9.876;2023-02-12T06:21:23;155.93;;;15.87;;
7308;SDS011;3695;53.330;9.876;2023-02-12T06:23:51;135.40;;;15.03;;
7308;SDS011;3695;53.330;9.876;2023-02-12T06:26:18;184.17;;;16.97;;
7308;SDS011;3695;53.330;9.876;2023-02-12T06:28:45;102.50;;;13.27;;
7308;SDS011;3695;53.330;9.876;2023-02-12T06:31:19;78.93;;;12.83;;
7308;SDS011;3695;53.330;9.876;2023-02-12T06:33:47;98.23;;;14.53;;
7308;SDS011;3695;53.330;9.876;2023-02-12T06:36:15;74.23;;;13.07;;
7308;SDS011;3695;53.330;9.876;2023-02-12T06:38:42;92.03;;;15.07;;
7308;SDS011;3695;53.330;9.876;2023-02-12T06:41:08;119.47;;;13.70;;
7308;SDS011;3695;53.330;9.876;2023-02-12T06:43:35;55.90;;;13.93;;
7308;SDS011;3695;53.330;9.876;2023-02-12T06:46:02;100.80;;;16.67;;
7308;SDS011;3695;53.330;9.876;2023-02-12T06:48:29;124.03;;;19.13;;
7308;SDS011;3695;53.330;9.876;2023-02-12T06:51:02;141.53;;;18.40;;
7308;SDS011;3695;53.330;9.876;2023-02-12T06:53:31;109.50;;;17.10;;
7308;SDS011;3695;53.330;9.876;2023-02-12T06:55:58;92.77;;;17.33;;
7308;SDS011;3695;53.330;9.876;2023-02-12T06:58:25;92.77;;;16.87;;
7308;SDS011;3695;53.330;9.876;2023-02-12T07:00:52;73.47;;;15.43;;
7308;SDS011;3695;53.330;9.876;2023-02-12T07:03:18;92.90;;;17.80;;
7308;SDS011;3695;53.330;9.876;2023-02-12T07:05:44;152.57;;;21.37;;
7308;SDS011;3695;53.330;9.876;2023-02-12T07:08:12;71.33;;;16.60;;
7308;SDS011;3695;53.330;9.876;2023-02-12T07:10:40;143.70;;;21.77;;
7308;SDS011;3695;53.330;9.876;2023-02-12T07:13:06;63.93;;;15.90;;
7308;SDS011;3695;53.330;9.876;2023-02-12T07:15:33;128.57;;;22.77;;
7308;SDS011;3695;53.330;9.876;2023-02-12T07:18:04;103.23;;;20.53;;
7308;SDS011;3695;53.330;9.876;2023-02-12T07:20:30;207.97;;;25.17;;
7308;SDS011;3695;53.330;9.876;2023-02-12T07:22:57;94.23;;;19.47;;
7308;SDS011;3695;53.330;9.876;2023-02-12T07:25:24;157.67;;;23.57;;
7308;SDS011;3695;53.330;9.876;2023-02-12T07:27:51;135.97;;;23.37;;
7308;SDS011;3695;53.330;9.876;2023-02-12T07:30:18;142.43;;;23.33;;
7308;SDS011;3695;53.330;9.876;2023-02-12T07:32:45;127.67;;;22.20;;
7308;SDS011;3695;53.330;9.876;2023-02-12T07:35:11;166.03;;;24.50;;
7308;SDS011;3695;53.330;9.876;2023-02-12T07:37:38;131.03;;;22.93;;
7308;SDS011;3695;53.330;9.876;2023-02-12T07:40:05;113.13;;;22.23;;
7308;SDS011;3695;53.330;9.876;2023-02-12T07:42:32;77.97;;;20.20;;
7308;SDS011;3695;53.330;9.876;2023-02-12T07:45:00;127.63;;;25.10;;
7308;SDS011;3695;53.330;9.876;2023-02-12T07:47:27;149.17;;;24.53;;
7308;SDS011;3695;53.330;9.876;2023-02-12T07:49:53;115.00;;;22.47;;
7308;SDS011;3695;53.330;9.876;2023-02-12T07:52:20;139.87;;;24.17;;
7308;SDS011;3695;53.330;9.876;2023-02-12T07:54:46;94.03;;;22.53;;
7308;SDS011;3695;53.330;9.876;2023-02-12T07:57:13;195.47;;;27.80;;
7308;SDS011;3695;53.330;9.876;2023-02-12T07:59:39;208.90;;;27.37;;
7308;SDS011;3695;53.330;9.876;2023-02-12T08:02:08;119.93;;;21.50;;
7308;SDS011;3695;53.330;9.876;2023-02-12T08:04:34;121.67;;;22.47;;
7308;SDS011;3695;53.330;9.876;2023-02-12T08:07:01;159.00;;;25.40;;
7308;SDS011;3695;53.330;9.876;2023-02-12T08:09:27;116.10;;;23.57;;
7308;SDS011;3695;53.330;9.876;2023-02-12T08:11:55;119.37;;;24.70;;
7308;SDS011;3695;53.330;9.876;2023-02-12T08:14:23;104.83;;;23.30;;
7308;SDS011;3695;53.330;9.876;2023-02-12T08:16:50;99.10;;;20.07;;
7308;SDS011;3695;53.330;9.876;2023-02-12T08:19:17;155.50;;;24.80;;
7308;SDS011;3695;53.330;9.876;2023-02-12T08:21:44;71.80;;;21.67;;
7308;SDS011;3695;53.330;9.876;2023-02-12T08:24:11;115.17;;;24.00;;
7308;SDS011;3695;53.330;9.876;2023-02-12T08:26:38;139.23;;;26.17;;
7308;SDS011;3695;53.330;9.876;2023-02-12T08:29:06;181.47;;;28.33;;
7308;SDS011;3695;53.330;9.876;2023-02-12T08:31:34;175.23;;;28.23;;
7308;SDS011;3695;53.330;9.876;2023-02-12T08:34:03;120.53;;;24.83;;
7308;SDS011;3695;53.330;9.876;2023-02-12T08:36:34;109.90;;;23.80;;
7308;SDS011;3695;53.330;9.876;2023-02-12T08:39:03;161.47;;;26.60;;
7308;SDS011;3695;53.330;9.876;2023-02-12T08:41:30;151.10;;;27.20;;
7308;SDS011;3695;53.330;9.876;2023-02-12T08:43:57;166.57;;;28.53;;
7308;SDS011;3695;53.330;9.876;2023-02-12T08:46:25;115.10;;;23.97;;
7308;SDS011;3695;53.330;9.876;2023-02-12T08:48:53;154.43;;;27.30;;
7308;SDS011;3695;53.330;9.876;2023-02-12T08:51:22;129.17;;;25.03;;
7308;SDS011;3695;53.330;9.876;2023-02-12T08:53:52;86.50;;;22.17;;
7308;SDS011;3695;53.330;9.876;2023-02-12T08:56:21;117.07;;;23.53;;
7308;SDS011;3695;53.330;9.876;2023-02-12T08:58:48;101.20;;;23.20;;
7308;SDS011;3695;53.330;9.876;2023-02-12T09:01:15;107.30;;;23.47;;
7308;SDS011;3695;53.330;9.876;2023-02-12T09:03:43;85.17;;;20.53;;
7308;SDS011;3695;53.330;9.876;2023-02-12T09:06:11;64.60;;;20.87;;
7308;SDS011;3695;53.330;9.876;2023-02-12T09:08:39;62.70;;;19.40;;
7308;SDS011;3695;53.330;9.876;2023-02-12T09:11:08;66.67;;;19.37;;
7308;SDS011;3695;53.330;9.876;2023-02-12T09:13:36;76.67;;;20.33;;
7308;SDS011;3695;53.330;9.876;2023-02-12T09:16:04;53.80;;;18.60;;
7308;SDS011;3695;53.330;9.876;2023-02-12T09:18:32;63.70;;;18.83;;
7308;SDS011;3695;53.330;9.876;2023-02-12T09:20:59;54.23;;;17.23;;
7308;SDS011;3695;53.330;9.876;2023-02-12T09:23:26;169.67;;;75.80;;
7308;SDS011;3695;53.330;9.876;2023-02-12T09:25:53;183.90;;;83.23;;
7308;SDS011;3695;53.330;9.876;2023-02-12T09:28:21;79.33;;;29.07;;
7308;SDS011;3695;53.330;9.876;2023-02-12T09:30:47;68.93;;;20.23;;
7308;SDS011;3695;53.330;9.876;2023-02-12T09:33:14;56.70;;;18.17;;
7308;SDS011;3695;53.330;9.876;2023-02-12T09:35:40;76.07;;;18.17;;
7308;SDS011;3695;53.330;9.876;2023-02-12T09:38:07;45.67;;;15.47;;
7308;SDS011;3695;53.330;9.876;2023-02-12T09:40:35;43.97;;;15.57;;
7308;SDS011;3695;53.330;9.876;2023-02-12T09:43:10;55.03;;;15.90;;
7308;SDS011;3695;53.330;9.876;2023-02-12T09:45:45;45.27;;;14.80;;
7308;SDS011;3695;53.330;9.876;2023-02-12T09:48:26;38.67;;;14.73;;
7308;SDS011;3695;53.330;9.876;2023-02-12T09:51:04;43.40;;;13.80;;
7308;SDS011;3695;53.330;9.876;2023-02-12T09:53:34;44.10;;;15.30;;
7308;SDS011;3695;53.330;9.876;2023-02-12T09:56:05;47.50;;;15.27;;
7308;SDS011;3695;53.330;9.876;2023-02-12T09:58:37;47.43;;;14.07;;
7308;SDS011;3695;53.330;9.876;2023-02-12T10:01:10;43.20;;;14.13;;
7308;SDS011;3695;53.330;9.876;2023-02-12T10:03:38;45.13;;;14.53;;
7308;SDS011;3695;53.330;9.876;2023-02-12T10:06:06;38.17;;;12.70;;
7308;SDS011;3695;53.330;9.876;2023-02-12T10:08:39;87.00;;;39.37;;
7308;SDS011;3695;53.330;9.876;2023-02-12T10:11:23;569.83;;;312.07;;
7308;SDS011;3695;53.330;9.876;2023-02-12T10:14:19;212.87;;;102.90;;
7308;SDS011;3695;53.330;9.876;2023-02-12T10:16:59;54.17;;;18.30;;
7308;SDS011;3695;53.330;9.876;2023-02-12T10:19:39;40.80;;;15.07;;
7308;SDS011;3695;53.330;9.876;2023-02-12T10:22:25;47.50;;;15.17;;
7308;SDS011;3695;53.330;9.876;2023-02-12T10:25:02;51.90;;;14.50;;
7308;SDS011;3695;53.330;9.876;2023-02-12T10:27:40;48.47;;;14.53;;
7308;SDS011;3695;53.330;9.876;2023-02-12T10:30:15;39.63;;;14.77;;
7308;SDS011;3695;53.330;9.876;2023-02-12T10:32:47;51.33;;;15.73;;
7308;SDS011;3695;53.330;9.876;2023-02-12T10:35:17;47.70;;;14.73;;
7308;SDS011;3695;53.330;9.876;2023-02-12T10:37:48;53.33;;;16.33;;
7308;SDS011;3695;53.330;9.876;2023-02-12T10:40:18;54.13;;;15.53;;
7308;SDS011;3695;53.330;9.876;2023-02-12T10:42:49;47.37;;;17.03;;
7308;SDS011;3695;53.330;9.876;2023-02-12T10:45:17;47.27;;;16.13;;
7308;SDS011;3695;53.330;9.876;2023-02-12T10:47:48;55.10;;;16.10;;
7308;SDS011;3695;53.330;9.876;2023-02-12T10:50:19;44.57;;;14.97;;
7308;SDS011;3695;53.330;9.876;2023-02-12T10:52:55;43.63;;;16.30;;
7308;SDS011;3695;53.330;9.876;2023-02-12T10:55:25;49.50;;;15.63;;
7308;SDS011;3695;53.330;9.876;2023-02-12T10:57:54;47.47;;;15.20;;
7308;SDS011;3695;53.330;9.876;2023-02-12T11:00:23;58.60;;;15.97;;
7308;SDS011;3695;53.330;9.876;2023-02-12T11:03:00;39.17;;;14.37;;
7308;SDS011;3695;53.330;9.876;2023-02-12T11:05:30;71.67;;;29.17;;
7308;SDS011;3695;53.330;9.876;2023-02-12T11:07:58;49.47;;;16.37;;
7308;SDS011;3695;53.330;9.876;2023-02-12T11:10:26;437.53;;;264.73;;
7308;SDS011;3695;53.330;9.876;2023-02-12T11:12:54;48.90;;;18.03;;
7308;SDS011;3695;53.330;9.876;2023-02-12T11:15:22;43.43;;;15.87;;
7308;SDS011;3695;53.330;9.876;2023-02-12T11:17:54;39.90;;;14.43;;
7308;SDS011;3695;53.330;9.876;2023-02-12T11:20:26;38.57;;;13.87;;
7308;SDS011;3695;53.330;9.876;2023-02-12T11:22:55;41.47;;;14.10;;
7308;SDS011;3695;53.330;9.876;2023-02-12T11:25:24;33.90;;;12.17;;
7308;SDS011;3695;53.330;9.876;2023-02-12T11:27:59;35.33;;;12.57;;
7308;SDS011;3695;53.330;9.876;2023-02-12T11:30:29;35.37;;;12.50;;
7308;SDS011;3695;53.330;9.876;2023-02-12T11:35:51;35.80;;;11.93;;
7308;SDS011;3695;53.330;9.876;2023-02-12T11:38:22;32.03;;;11.93;;
7308;SDS011;3695;53.330;9.876;2023-02-12T11:40:53;29.07;;;11.87;;
7308;SDS011;3695;53.330;9.876;2023-02-12T11:43:23;26.47;;;11.13;;
7308;SDS011;3695;53.330;9.876;2023-02-12T11:45:52;25.07;;;11.20;;
7308;SDS011;3695;53.330;9.876;2023-02-12T11:48:22;31.40;;;11.83;;
7308;SDS011;3695;53.330;9.876;2023-02-12T11:50:52;26.27;;;11.90;;
7308;SDS011;3695;53.330;9.876;2023-02-12T11:53:22;26.03;;;11.63;;
7308;SDS011;3695;53.330;9.876;2023-02-12T11:55:54;32.13;;;11.50;;
7308;SDS011;3695;53.330;9.876;2023-02-12T11:58:23;24.57;;;10.23;;
7308;SDS011;3695;53.330;9.876;2023-02-12T12:00:52;26.23;;;10.40;;
7308;SDS011;3695;53.330;9.876;2023-02-12T12:03:25;23.37;;;9.70;;
7308;SDS011;3695;53.330;9.876;2023-02-12T12:05:58;22.83;;;9.80;;
7308;SDS011;3695;53.330;9.876;2023-02-12T12:08:31;53.10;;;24.40;;
7308;SDS011;3695;53.330;9.876;2023-02-12T12:11:03;94.03;;;47.63;;
7308;SDS011;3695;53.330;9.876;2023-02-12T12:13:35;121.67;;;62.83;;
7308;SDS011;3695;53.330;9.876;2023-02-12T12:16:08;49.10;;;23.27;;
7308;SDS011;3695;53.330;9.876;2023-02-12T12:18:57;24.10;;;11.10;;
7308;SDS011;3695;53.330;9.876;2023-02-12T12:21:46;23.83;;;10.83;;
7308;SDS011;3695;53.330;9.876;2023-02-12T12:24:21;21.37;;;9.97;;
7308;SDS011;3695;53.330;9.876;2023-02-12T12:26:54;20.40;;;8.97;;
7308;SDS011;3695;53.330;9.876;2023-02-12T12:29:30;18.43;;;8.57;;
7308;SDS011;3695;53.330;9.876;2023-02-12T12:32:08;23.10;;;9.27;;
7308;SDS011;3695;53.330;9.876;2023-02-12T12:34:40;22.47;;;8.70;;
7308;SDS011;3695;53.330;9.876;2023-02-12T12:37:11;15.10;;;7.77;;
7308;SDS011;3695;53.330;9.876;2023-02-12T12:39:49;14.60;;;7.70;;
7308;SDS011;3695;53.330;9.876;2023-02-12T12:42:38;12.67;;;7.60;;
7308;SDS011;3695;53.330;9.876;2023-02-12T12:45:23;14.50;;;6.47;;
7308;SDS011;3695;53.330;9.876;2023-02-12T12:48:06;15.57;;;7.53;;
7308;SDS011;3695;53.330;9.876;2023-02-12T12:50:47;16.33;;;7.20;;
7308;SDS011;3695;53.330;9.876;2023-02-12T12:53:31;15.13;;;7.40;;
7308;SDS011;3695;53.330;9.876;2023-02-12T12:56:21;11.43;;;6.20;;
7308;SDS011;3695;53.330;9.876;2023-02-12T12:59:03;13.80;;;6.53;;
7308;SDS011;3695;53.330;9.876;2023-02-12T13:05:20;12.07;;;7.33;;
7308;SDS011;3695;53.330;9.876;2023-02-12T13:07:59;10.87;;;6.30;;
7308;SDS011;3695;53.330;9.876;2023-02-12T13:10:35;13.97;;;7.30;;
7308;SDS011;3695;53.330;9.876;2023-02-12T13:13:21;10.47;;;5.70;;
7308;SDS011;3695;53.330;9.876;2023-02-12T13:15:55;12.47;;;6.70;;
7308;SDS011;3695;53.330;9.876;2023-02-12T13:18:31;12.47;;;6.43;;
7308;SDS011;3695;53.330;9.876;2023-02-12T13:21:08;11.93;;;6.37;;
7308;SDS011;3695;53.330;9.876;2023-02-12T13:23:44;11.57;;;6.47;;
7308;SDS011;3695;53.330;9.876;2023-02-12T13:26:17;12.13;;;6.30;;
7308;SDS011;3695;53.330;9.876;2023-02-12T13:28:55;14.73;;;6.90;;
7308;SDS011;3695;53.330;9.876;2023-02-12T13:31:27;12.97;;;7.30;;
7308;SDS011;3695;53.330;9.876;2023-02-12T13:33:56;13.33;;;7.13;;
7308;SDS011;3695;53.330;9.876;2023-02-12T13:36:25;12.13;;;6.67;;
7308;SDS011;3695;53.330;9.876;2023-02-12T13:38:53;11.57;;;7.33;;
7308;SDS011;3695;53.330;9.876;2023-02-12T13:41:24;10.97;;;6.07;;
7308;SDS011;3695;53.330;9.876;2023-02-12T13:43:57;10.30;;;5.30;;
7308;SDS011;3695;53.330;9.876;2023-02-12T13:46:31;11.43;;;5.67;;
7308;SDS011;3695;53.330;9.876;2023-02-12T13:49:08;7.93;;;4.50;;
7308;SDS011;3695;53.330;9.876;2023-02-12T13:51:44;11.37;;;5.67;;
7308;SDS011;3695;53.330;9.876;2023-02-12T13:54:16;10.40;;;5.47;;
7308;SDS011;3695;53.330;9.876;2023-02-12T13:56:56;8.70;;;5.43;;
7308;SDS011;3695;53.330;9.876;2023-02-12T13:59:39;10.03;;;5.47;;
7308;SDS011;3695;53.330;9.876;2023-02-12T14:04:53;9.33;;;5.87;;
7308;SDS011;3695;53.330;9.876;2023-02-12T14:07:21;9.33;;;6.20;;
7308;SDS011;3695;53.330;9.876;2023-02-12T14:09:59;11.67;;;6.83;;
7308;SDS011;3695;53.330;9.876;2023-02-12T14:12:30;8.13;;;5.53;;
7308;SDS011;3695;53.330;9.876;2023-02-12T14:15:03;6.80;;;4.87;;
7308;SDS011;3695;53.330;9.876;2023-02-12T14:17:51;6.97;;;4.33;;
7308;SDS011;3695;53.330;9.876;2023-02-12T14:20:20;7.43;;;4.30;;
7308;SDS011;3695;53.330;9.876;2023-02-12T14:22:56;7.87;;;4.13;;
7308;SDS011;3695;53.330;9.876;2023-02-12T14:25:58;6.13;;;3.57;;
7308;SDS011;3695;53.330;9.876;2023-02-12T14:28:30;9.03;;;4.27;;
7308;SDS011;3695;53.330;9.876;2023-02-12T14:37:10;5.50;;;3.90;;
7308;SDS011;3695;53.330;9.876;2023-02-12T14:39:41;6.33;;;4.30;;
7308;SDS011;3695;53.330;9.876;2023-02-12T14:47:59;7.77;;;3.80;;
7308;SDS011;3695;53.330;9.876;2023-02-12T14:50:28;6.37;;;3.40;;
7308;SDS011;3695;53.330;9.876;2023-02-12T14:53:10;4.83;;;3.43;;
7308;SDS011;3695;53.330;9.876;2023-02-12T14:55:47;5.23;;;3.87;;
7308;SDS011;3695;53.330;9.876;2023-02-12T14:58:16;5.23;;;3.33;;
7308;SDS011;3695;53.330;9.876;2023-02-12T15:00:47;3.70;;;3.10;;
7308;SDS011;3695;53.330;9.876;2023-02-12T15:03:18;5.57;;;3.63;;
7308;SDS011;3695;53.330;9.876;2023-02-12T15:05:52;6.07;;;3.77;;
7308;SDS011;3695;53.330;9.876;2023-02-12T15:08:25;5.53;;;3.20;;
7308;SDS011;3695;53.330;9.876;2023-02-12T15:10:57;5.87;;;3.17;;
7308;SDS011;3695;53.330;9.876;2023-02-12T15:13:29;4.13;;;2.90;;
7308;SDS011;3695;53.330;9.876;2023-02-12T15:16:13;4.70;;;3.67;;
7308;SDS011;3695;53.330;9.876;2023-02-12T15:18:47;4.37;;;3.43;;
7308;SDS011;3695;53.330;9.876;2023-02-12T15:21:19;5.73;;;3.47;;
7308;SDS011;3695;53.330;9.876;2023-02-12T15:23:57;5.33;;;3.40;;
7308;SDS011;3695;53.330;9.876;2023-02-12T15:26:27;4.33;;;3.23;;
7308;SDS011;3695;53.330;9.876;2023-02-12T15:28:55;4.63;;;3.20;;
7308;SDS011;3695;53.330;9.876;2023-02-12T15:31:25;5.60;;;3.70;;
7308;SDS011;3695;53.330;9.876;2023-02-12T15:33:53;5.27;;;3.70;;
7308;SDS011;3695;53.330;9.876;2023-02-12T15:36:22;5.20;;;3.37;;
7308;SDS011;3695;53.330;9.876;2023-02-12T15:38:51;7.57;;;4.03;;